sensor_id;sensor_type;location;lat;lon;timestamp;temperature;humidity
13369;DHT22;6753;52.520;13.450;2024-02-26T00:00:04;20.30;56.40
13369;DHT22;6753;52.520;13.450;2024-02-26T00:00:16;20.30;56.40
13369;DHT22;6753;52.520;13.450;2024-02-26T00:00:26;20.30;56.40
13369;DHT22;6753;52.520;13.450;2024-02-26T00:00:39;20.30;56.40
13369;DHT22;6753;52.520;13.450;2024-02-26T00:00:49;20.30;56.40
13369;DHT22;6753;52.520;13.450;2024-02-26T00:01:00;20.20;56.30
13369;DHT22;6753;52.520;13.450;2024-02-26T00:01:12;20.30;56.30
13369;DHT22;6753;52.520;13.450;2024-02-26T00:01:22;20.30;56.30
13369;DHT22;6753;52.520;13.450;2024-02-26T00:01:33;20.30;56.40
13369;DHT22;6753;52.520;13.450;2024-02-26T00:01:44;20.30;56.30
13369;DHT22;6753;52.520;13.450;2024-02-26T00:01:55;20.30;56.40
13369;DHT22;6753;52.520;13.450;2024-02-26T00:02:06;20.30;56.40
13369;DHT22;6753;52.520;13.450;2024-02-26T00:02:18;20.30;56.30
13369;DHT22;6753;52.520;13.450;2024-02-26T00:02:28;20.30;56.30
13369;DHT22;6753;52.520;13.450;2024-02-26T00:02:39;20.30;56.30
13369;DHT22;6753;52.520;13.450;2024-02-26T00:02:53;20.30;56.30
13369;DHT22;6753;52.520;13.450;2024-02-26T00:03:04;20.30;56.30
13369;DHT22;6753;52.520;13.450;2024-02-26T00:03:15;20.30;56.20
13369;DHT22;6753;52.520;13.450;2024-02-26T00:03:26;20.30;56.30
13369;DHT22;6753;52.520;13.450;2024-02-26T00:03:37;20.30;56.30
13369;DHT22;6753;52.520;13.450;2024-02-26T00:03:47;20.30;56.30
13369;DHT22;6753;52.520;13.450;2024-02-26T00:03:58;20.30;56.30
13369;DHT22;6753;52.520;13.450;2024-02-26T00:04:10;20.30;56.30
13369;DHT22;6753;52.520;13.450;2024-02-26T00:04:20;20.20;56.20
13369;DHT22;6753;52.520;13.450;2024-02-26T00:04:32;20.30;56.30
13369;DHT22;6753;52.520;13.450;2024-02-26T00:04:43;20.30;56.30
13369;DHT22;6753;52.520;13.450;2024-02-26T00:04:54;20.30;56.30
13369;DHT22;6753;52.520;13.450;2024-02-26T00:05:05;20.30;56.30
13369;DHT22;6753;52.520;13.450;2024-02-26T00:05:16;20.30;56.30
13369;DHT22;6753;52.520;13.450;2024-02-26T00:05:27;20.30;56.20
13369;DHT22;6753;52.520;13.450;2024-02-26T00:05:38;20.30;56.30
13369;DHT22;6753;52.520;13.450;2024-02-26T00:05:49;20.30;56.20
13369;DHT22;6753;52.520;13.450;2024-02-26T00:06:00;20.30;56.20
13369;DHT22;6753;52.520;13.450;2024-02-26T00:06:11;20.30;56.30
13369;DHT22;6753;52.520;13.450;2024-02-26T00:06:21;20.30;56.30
13369;DHT22;6753;52.520;13.450;2024-02-26T00:06:35;20.30;56.20
13369;DHT22;6753;52.520;13.450;2024-02-26T00:06:47;20.30;56.20
13369;DHT22;6753;52.520;13.450;2024-02-26T00:07:00;20.30;56.20
13369;DHT22;6753;52.520;13.450;2024-02-26T00:07:11;20.30;56.20
13369;DHT22;6753;52.520;13.450;2024-02-26T00:07:22;20.30;56.20
13369;DHT22;6753;52.520;13.450;2024-02-26T00:07:33;20.30;56.20
13369;DHT22;6753;52.520;13.450;2024-02-26T00:07:43;20.30;56.20
13369;DHT22;6753;52.520;13.450;2024-02-26T00:07:55;20.30;56.30
13369;DHT22;6753;52.520;13.450;2024-02-26T00:08:06;20.30;56.20
13369;DHT22;6753;52.520;13.450;2024-02-26T00:08:17;20.30;56.20
13369;DHT22;6753;52.520;13.450;2024-02-26T00:08:28;20.30;56.20
13369;DHT22;6753;52.520;13.450;2024-02-26T00:08:41;20.30;56.20
13369;DHT22;6753;52.520;13.450;2024-02-26T00:08:53;20.30;56.20
13369;DHT22;6753;52.520;13.450;2024-02-26T00:09:03;20.30;56.20
13369;DHT22;6753;52.520;13.450;2024-02-26T00:09:16;20.30;56.30
13369;DHT22;6753;52.520;13.450;2024-02-26T00:09:27;20.30;56.30
13369;DHT22;6753;52.520;13.450;2024-02-26T00:09:38;20.30;56.30
13369;DHT22;6753;52.520;13.450;2024-02-26T00:09:48;20.30;56.20
13369;DHT22;6753;52.520;13.450;2024-02-26T00:09:59;20.30;56.30
13369;DHT22;6753;52.520;13.450;2024-02-26T00:10:10;20.30;56.20
13369;DHT22;6753;52.520;13.450;2024-02-26T00:10:21;20.30;56.30
13369;DHT22;6753;52.520;13.450;2024-02-26T00:10:32;20.30;56.20
13369;DHT22;6753;52.520;13.450;2024-02-26T00:10:43;20.30;56.30
13369;DHT22;6753;52.520;13.450;2024-02-26T00:10:54;20.30;56.20
13369;DHT22;6753;52.520;13.450;2024-02-26T00:11:05;20.30;56.20
13369;DHT22;6753;52.520;13.450;2024-02-26T00:11:15;20.30;56.20
13369;DHT22;6753;52.520;13.450;2024-02-26T00:11:26;20.30;56.20
13369;DHT22;6753;52.520;13.450;2024-02-26T00:11:37;20.30;56.20
13369;DHT22;6753;52.520;13.450;2024-02-26T00:11:48;20.30;56.20
13369;DHT22;6753;52.520;13.450;2024-02-26T00:11:58;20.30;56.20
13369;DHT22;6753;52.520;13.450;2024-02-26T00:12:11;20.30;56.20
13369;DHT22;6753;52.520;13.450;2024-02-26T00:12:21;20.30;56.40
13369;DHT22;6753;52.520;13.450;2024-02-26T00:12:33;20.30;56.40
13369;DHT22;6753;52.520;13.450;2024-02-26T00:12:44;20.30;56.40
13369;DHT22;6753;52.520;13.450;2024-02-26T00:12:55;20.30;56.40
13369;DHT22;6753;52.520;13.450;2024-02-26T00:13:05;20.30;56.40
13369;DHT22;6753;52.520;13.450;2024-02-26T00:13:16;20.30;56.40
13369;DHT22;6753;52.520;13.450;2024-02-26T00:13:27;20.20;56.30
13369;DHT22;6753;52.520;13.450;2024-02-26T00:13:37;20.30;56.40
13369;DHT22;6753;52.520;13.450;2024-02-26T00:13:48;20.30;56.30
13369;DHT22;6753;52.520;13.450;2024-02-26T00:13:59;20.20;56.20
13369;DHT22;6753;52.520;13.450;2024-02-26T00:14:10;20.30;56.30
13369;DHT22;6753;52.520;13.450;2024-02-26T00:14:20;20.30;56.30
13369;DHT22;6753;52.520;13.450;2024-02-26T00:14:32;20.30;56.30
13369;DHT22;6753;52.520;13.450;2024-02-26T00:14:43;20.30;56.30
13369;DHT22;6753;52.520;13.450;2024-02-26T00:14:55;20.30;56.30
13369;DHT22;6753;52.520;13.450;2024-02-26T00:15:09;20.30;56.80
13369;DHT22;6753;52.520;13.450;2024-02-26T00:15:20;20.30;56.30
13369;DHT22;6753;52.520;13.450;2024-02-26T00:15:30;20.30;56.30
13369;DHT22;6753;52.520;13.450;2024-02-26T00:15:41;20.30;56.30
13369;DHT22;6753;52.520;13.450;2024-02-26T00:15:52;20.30;56.30
13369;DHT22;6753;52.520;13.450;2024-02-26T00:16:04;20.30;56.30
13369;DHT22;6753;52.520;13.450;2024-02-26T00:16:16;20.30;56.40
13369;DHT22;6753;52.520;13.450;2024-02-26T00:16:27;20.30;56.30
13369;DHT22;6753;52.520;13.450;2024-02-26T00:16:40;20.30;56.30
13369;DHT22;6753;52.520;13.450;2024-02-26T00:16:50;20.30;56.40
13369;DHT22;6753;52.520;13.450;2024-02-26T00:17:01;20.30;56.30
13369;DHT22;6753;52.520;13.450;2024-02-26T00:17:13;20.30;56.30
13369;DHT22;6753;52.520;13.450;2024-02-26T00:17:24;20.30;56.30
13369;DHT22;6753;52.520;13.450;2024-02-26T00:17:35;20.30;56.30
13369;DHT22;6753;52.520;13.450;2024-02-26T00:17:45;20.30;56.30
13369;DHT22;6753;52.520;13.450;2024-02-26T00:17:56;20.30;56.30
13369;DHT22;6753;52.520;13.450;2024-02-26T00:18:08;20.30;56.30
13369;DHT22;6753;52.520;13.450;2024-02-26T00:18:20;20.30;56.30
13369;DHT22;6753;52.520;13.450;2024-02-26T00:18:30;20.30;56.30
13369;DHT22;6753;52.520;13.450;2024-02-26T00:18:41;20.30;56.30
13369;DHT22;6753;52.520;13.450;2024-02-26T00:18:52;20.30;56.30
13369;DHT22;6753;52.520;13.450;2024-02-26T00:19:02;20.30;56.30
13369;DHT22;6753;52.520;13.450;2024-02-26T00:19:13;20.30;56.20
13369;DHT22;6753;52.520;13.450;2024-02-26T00:19:24;20.30;56.20
13369;DHT22;6753;52.520;13.450;2024-02-26T00:19:35;20.30;56.20
13369;DHT22;6753;52.520;13.450;2024-02-26T00:19:47;20.30;56.20
13369;DHT22;6753;52.520;13.450;2024-02-26T00:19:57;20.30;56.20
13369;DHT22;6753;52.520;13.450;2024-02-26T00:20:10;20.30;56.30
13369;DHT22;6753;52.520;13.450;2024-02-26T00:20:21;20.30;56.30
13369;DHT22;6753;52.520;13.450;2024-02-26T00:20:32;20.30;56.30
13369;DHT22;6753;52.520;13.450;2024-02-26T00:20:43;20.20;56.10
13369;DHT22;6753;52.520;13.450;2024-02-26T00:20:53;20.30;56.30
13369;DHT22;6753;52.520;13.450;2024-02-26T00:21:04;20.30;56.30
13369;DHT22;6753;52.520;13.450;2024-02-26T00:21:15;20.30;56.20
13369;DHT22;6753;52.520;13.450;2024-02-26T00:21:28;20.20;56.10
13369;DHT22;6753;52.520;13.450;2024-02-26T00:21:40;20.30;56.20
13369;DHT22;6753;52.520;13.450;2024-02-26T00:21:51;20.30;56.30
13369;DHT22;6753;52.520;13.450;2024-02-26T00:22:04;20.30;56.20
13369;DHT22;6753;52.520;13.450;2024-02-26T00:22:15;20.20;56.10
13369;DHT22;6753;52.520;13.450;2024-02-26T00:22:25;20.30;56.20
13369;DHT22;6753;52.520;13.450;2024-02-26T00:22:36;20.30;56.20
13369;DHT22;6753;52.520;13.450;2024-02-26T00:22:50;20.20;56.10
13369;DHT22;6753;52.520;13.450;2024-02-26T00:23:01;20.30;56.20
13369;DHT22;6753;52.520;13.450;2024-02-26T00:23:14;20.30;56.20
13369;DHT22;6753;52.520;13.450;2024-02-26T00:23:25;20.20;56.10
13369;DHT22;6753;52.520;13.450;2024-02-26T00:23:37;20.20;56.10
13369;DHT22;6753;52.520;13.450;2024-02-26T00:23:49;20.40;56.40
13369;DHT22;6753;52.520;13.450;2024-02-26T00:24:00;20.20;56.00
13369;DHT22;6753;52.520;13.450;2024-02-26T00:24:11;20.20;56.00
13369;DHT22;6753;52.520;13.450;2024-02-26T00:24:22;20.30;56.20
13369;DHT22;6753;52.520;13.450;2024-02-26T00:24:32;20.20;56.00
13369;DHT22;6753;52.520;13.450;2024-02-26T00:24:43;20.20;56.00
13369;DHT22;6753;52.520;13.450;2024-02-26T00:24:54;20.20;56.10
13369;DHT22;6753;52.520;13.450;2024-02-26T00:25:05;20.20;56.00
13369;DHT22;6753;52.520;13.450;2024-02-26T00:25:17;20.20;56.00
13369;DHT22;6753;52.520;13.450;2024-02-26T00:25:28;20.20;56.00
13369;DHT22;6753;52.520;13.450;2024-02-26T00:25:39;20.20;56.00
13369;DHT22;6753;52.520;13.450;2024-02-26T00:25:49;20.20;56.00
13369;DHT22;6753;52.520;13.450;2024-02-26T00:26:00;20.30;56.10
13369;DHT22;6753;52.520;13.450;2024-02-26T00:26:11;20.20;56.00
13369;DHT22;6753;52.520;13.450;2024-02-26T00:26:22;20.30;56.70
13369;DHT22;6753;52.520;13.450;2024-02-26T00:26:32;20.30;56.10
13369;DHT22;6753;52.520;13.450;2024-02-26T00:26:43;20.30;56.20
13369;DHT22;6753;52.520;13.450;2024-02-26T00:26:54;20.20;56.00
13369;DHT22;6753;52.520;13.450;2024-02-26T00:27:05;20.20;56.00
13369;DHT22;6753;52.520;13.450;2024-02-26T00:27:18;20.30;56.20
13369;DHT22;6753;52.520;13.450;2024-02-26T00:27:30;20.20;56.00
13369;DHT22;6753;52.520;13.450;2024-02-26T00:27:41;20.20;56.00
13369;DHT22;6753;52.520;13.450;2024-02-26T00:27:54;20.20;56.00
13369;DHT22;6753;52.520;13.450;2024-02-26T00:28:05;20.20;56.00
13369;DHT22;6753;52.520;13.450;2024-02-26T00:28:16;20.20;56.00
13369;DHT22;6753;52.520;13.450;2024-02-26T00:28:26;20.20;56.00
13369;DHT22;6753;52.520;13.450;2024-02-26T00:28:38;20.20;56.00
13369;DHT22;6753;52.520;13.450;2024-02-26T00:28:50;20.20;56.00
13369;DHT22;6753;52.520;13.450;2024-02-26T00:29:01;20.20;56.00
13369;DHT22;6753;52.520;13.450;2024-02-26T00:29:12;20.20;56.00
13369;DHT22;6753;52.520;13.450;2024-02-26T00:29:23;20.30;56.10
13369;DHT22;6753;52.520;13.450;2024-02-26T00:29:36;20.30;56.10
13369;DHT22;6753;52.520;13.450;2024-02-26T00:29:47;20.20;56.00
13369;DHT22;6753;52.520;13.450;2024-02-26T00:30:00;20.20;56.00
13369;DHT22;6753;52.520;13.450;2024-02-26T00:30:11;20.30;56.10
13369;DHT22;6753;52.520;13.450;2024-02-26T00:30:22;20.20;56.10
13369;DHT22;6753;52.520;13.450;2024-02-26T00:30:33;20.20;56.00
13369;DHT22;6753;52.520;13.450;2024-02-26T00:30:44;20.20;56.00
13369;DHT22;6753;52.520;13.450;2024-02-26T00:30:55;20.20;56.00
13369;DHT22;6753;52.520;13.450;2024-02-26T00:31:09;20.20;56.00
13369;DHT22;6753;52.520;13.450;2024-02-26T00:31:21;20.20;56.00
13369;DHT22;6753;52.520;13.450;2024-02-26T00:31:31;20.20;56.00
13369;DHT22;6753;52.520;13.450;2024-02-26T00:31:42;20.20;56.00
13369;DHT22;6753;52.520;13.450;2024-02-26T00:31:53;20.20;56.00
13369;DHT22;6753;52.520;13.450;2024-02-26T00:32:04;20.20;56.00
13369;DHT22;6753;52.520;13.450;2024-02-26T00:32:15;20.20;56.00
13369;DHT22;6753;52.520;13.450;2024-02-26T00:32:26;20.30;56.20
13369;DHT22;6753;52.520;13.450;2024-02-26T00:32:37;20.20;56.10
13369;DHT22;6753;52.520;13.450;2024-02-26T00:32:47;20.20;56.00
13369;DHT22;6753;52.520;13.450;2024-02-26T00:32:58;20.20;56.00
13369;DHT22;6753;52.520;13.450;2024-02-26T00:33:09;20.20;56.00
13369;DHT22;6753;52.520;13.450;2024-02-26T00:33:21;20.20;56.00
13369;DHT22;6753;52.520;13.450;2024-02-26T00:33:32;20.20;56.00
13369;DHT22;6753;52.520;13.450;2024-02-26T00:33:43;20.20;56.00
13369;DHT22;6753;52.520;13.450;2024-02-26T00:33:54;20.20;56.00
13369;DHT22;6753;52.520;13.450;2024-02-26T00:34:04;20.20;56.00
13369;DHT22;6753;52.520;13.450;2024-02-26T00:34:15;20.20;56.00
13369;DHT22;6753;52.520;13.450;2024-02-26T00:34:26;20.20;56.00
13369;DHT22;6753;52.520;13.450;2024-02-26T00:34:37;20.20;56.00
13369;DHT22;6753;52.520;13.450;2024-02-26T00:34:47;20.20;56.00
13369;DHT22;6753;52.520;13.450;2024-02-26T00:34:58;20.20;56.00
13369;DHT22;6753;52.520;13.450;2024-02-26T00:35:09;20.30;56.10
13369;DHT22;6753;52.520;13.450;2024-02-26T00:35:21;20.20;56.00
13369;DHT22;6753;52.520;13.450;2024-02-26T00:35:31;20.20;56.00
13369;DHT22;6753;52.520;13.450;2024-02-26T00:35:42;20.20;56.00
13369;DHT22;6753;52.520;13.450;2024-02-26T00:35:53;20.20;56.00
13369;DHT22;6753;52.520;13.450;2024-02-26T00:36:05;20.20;56.10
13369;DHT22;6753;52.520;13.450;2024-02-26T00:36:15;20.20;56.00
13369;DHT22;6753;52.520;13.450;2024-02-26T00:36:26;20.20;56.00
13369;DHT22;6753;52.520;13.450;2024-02-26T00:36:37;20.30;56.10
13369;DHT22;6753;52.520;13.450;2024-02-26T00:36:49;20.20;56.00
13369;DHT22;6753;52.520;13.450;2024-02-26T00:36:59;20.20;56.00
13369;DHT22;6753;52.520;13.450;2024-02-26T00:37:10;20.20;56.00
13369;DHT22;6753;52.520;13.450;2024-02-26T00:37:21;20.20;56.00
13369;DHT22;6753;52.520;13.450;2024-02-26T00:37:31;20.20;56.00
13369;DHT22;6753;52.520;13.450;2024-02-26T00:37:42;20.20;56.00
13369;DHT22;6753;52.520;13.450;2024-02-26T00:37:54;20.20;56.00
13369;DHT22;6753;52.520;13.450;2024-02-26T00:38:05;20.20;56.00
13369;DHT22;6753;52.520;13.450;2024-02-26T00:38:16;20.20;56.00
13369;DHT22;6753;52.520;13.450;2024-02-26T00:38:27;20.20;56.00
13369;DHT22;6753;52.520;13.450;2024-02-26T00:38:38;20.20;56.00
13369;DHT22;6753;52.520;13.450;2024-02-26T00:38:50;20.20;56.00
13369;DHT22;6753;52.520;13.450;2024-02-26T00:39:01;20.20;56.00
13369;DHT22;6753;52.520;13.450;2024-02-26T00:39:14;20.20;56.00
13369;DHT22;6753;52.520;13.450;2024-02-26T00:39:24;20.20;56.00
13369;DHT22;6753;52.520;13.450;2024-02-26T00:39:35;20.20;56.00
13369;DHT22;6753;52.520;13.450;2024-02-26T00:39:46;20.20;56.00
13369;DHT22;6753;52.520;13.450;2024-02-26T00:39:57;20.20;56.00
13369;DHT22;6753;52.520;13.450;2024-02-26T00:40:08;20.20;56.00
13369;DHT22;6753;52.520;13.450;2024-02-26T00:40:19;20.20;56.00
13369;DHT22;6753;52.520;13.450;2024-02-26T00:40:30;20.20;56.00
13369;DHT22;6753;52.520;13.450;2024-02-26T00:40:41;20.20;56.00
13369;DHT22;6753;52.520;13.450;2024-02-26T00:40:52;20.20;56.00
13369;DHT22;6753;52.520;13.450;2024-02-26T00:41:03;20.20;56.00
13369;DHT22;6753;52.520;13.450;2024-02-26T00:41:14;20.20;56.00
13369;DHT22;6753;52.520;13.450;2024-02-26T00:41:25;20.20;56.00
13369;DHT22;6753;52.520;13.450;2024-02-26T00:41:38;20.20;56.00
13369;DHT22;6753;52.520;13.450;2024-02-26T00:41:49;20.20;55.90
13369;DHT22;6753;52.520;13.450;2024-02-26T00:42:02;20.20;56.00
13369;DHT22;6753;52.520;13.450;2024-02-26T00:42:13;20.20;56.00
13369;DHT22;6753;52.520;13.450;2024-02-26T00:42:25;20.20;56.00
13369;DHT22;6753;52.520;13.450;2024-02-26T00:42:36;20.20;55.90
13369;DHT22;6753;52.520;13.450;2024-02-26T00:42:47;20.20;55.90
13369;DHT22;6753;52.520;13.450;2024-02-26T00:42:58;20.20;56.00
13369;DHT22;6753;52.520;13.450;2024-02-26T00:43:09;20.10;55.80
13369;DHT22;6753;52.520;13.450;2024-02-26T00:43:20;20.20;56.00
13369;DHT22;6753;52.520;13.450;2024-02-26T00:43:30;20.20;55.90
13369;DHT22;6753;52.520;13.450;2024-02-26T00:43:41;20.20;55.90
13369;DHT22;6753;52.520;13.450;2024-02-26T00:43:53;20.20;55.90
13369;DHT22;6753;52.520;13.450;2024-02-26T00:44:03;20.20;55.90
13369;DHT22;6753;52.520;13.450;2024-02-26T00:44:14;20.20;56.00
13369;DHT22;6753;52.520;13.450;2024-02-26T00:44:25;20.20;55.90
13369;DHT22;6753;52.520;13.450;2024-02-26T00:44:37;20.20;56.00
13369;DHT22;6753;52.520;13.450;2024-02-26T00:44:47;20.20;55.90
13369;DHT22;6753;52.520;13.450;2024-02-26T00:44:58;20.20;55.90
13369;DHT22;6753;52.520;13.450;2024-02-26T00:45:09;20.20;55.90
13369;DHT22;6753;52.520;13.450;2024-02-26T00:45:20;20.20;55.90
13369;DHT22;6753;52.520;13.450;2024-02-26T00:45:30;20.20;55.90
13369;DHT22;6753;52.520;13.450;2024-02-26T00:45:42;20.20;55.90
13369;DHT22;6753;52.520;13.450;2024-02-26T00:45:53;20.20;55.90
13369;DHT22;6753;52.520;13.450;2024-02-26T00:46:03;20.20;55.90
13369;DHT22;6753;52.520;13.450;2024-02-26T00:46:14;20.20;55.90
13369;DHT22;6753;52.520;13.450;2024-02-26T00:46:25;20.20;56.00
13369;DHT22;6753;52.520;13.450;2024-02-26T00:46:36;20.20;55.90
13369;DHT22;6753;52.520;13.450;2024-02-26T00:46:47;20.20;55.90
13369;DHT22;6753;52.520;13.450;2024-02-26T00:46:58;20.20;55.90
13369;DHT22;6753;52.520;13.450;2024-02-26T00:47:09;20.20;56.00
13369;DHT22;6753;52.520;13.450;2024-02-26T00:47:19;20.20;55.90
13369;DHT22;6753;52.520;13.450;2024-02-26T00:47:30;20.20;55.90
13369;DHT22;6753;52.520;13.450;2024-02-26T00:47:41;20.20;55.90
13369;DHT22;6753;52.520;13.450;2024-02-26T00:47:52;20.20;55.90
13369;DHT22;6753;52.520;13.450;2024-02-26T00:48:03;20.20;55.90
13369;DHT22;6753;52.520;13.450;2024-02-26T00:48:15;20.20;55.90
13369;DHT22;6753;52.520;13.450;2024-02-26T00:48:26;20.20;55.90
13369;DHT22;6753;52.520;13.450;2024-02-26T00:48:38;20.20;55.90
13369;DHT22;6753;52.520;13.450;2024-02-26T00:48:48;20.20;55.90
13369;DHT22;6753;52.520;13.450;2024-02-26T00:48:59;20.20;55.90
13369;DHT22;6753;52.520;13.450;2024-02-26T00:49:11;20.20;55.90
13369;DHT22;6753;52.520;13.450;2024-02-26T00:49:21;20.20;55.90
13369;DHT22;6753;52.520;13.450;2024-02-26T00:49:32;20.20;55.90
13369;DHT22;6753;52.520;13.450;2024-02-26T00:49:43;20.20;55.90
13369;DHT22;6753;52.520;13.450;2024-02-26T00:49:53;20.20;55.90
13369;DHT22;6753;52.520;13.450;2024-02-26T00:50:05;20.20;55.90
13369;DHT22;6753;52.520;13.450;2024-02-26T00:50:16;20.20;55.90
13369;DHT22;6753;52.520;13.450;2024-02-26T00:50:28;20.20;55.90
13369;DHT22;6753;52.520;13.450;2024-02-26T00:50:39;20.20;55.90
13369;DHT22;6753;52.520;13.450;2024-02-26T00:50:49;20.20;55.90
13369;DHT22;6753;52.520;13.450;2024-02-26T00:51:00;20.10;55.70
13369;DHT22;6753;52.520;13.450;2024-02-26T00:51:11;20.20;55.90
13369;DHT22;6753;52.520;13.450;2024-02-26T00:51:21;20.20;55.90
13369;DHT22;6753;52.520;13.450;2024-02-26T00:51:32;20.20;55.90
13369;DHT22;6753;52.520;13.450;2024-02-26T00:51:43;20.20;55.90
13369;DHT22;6753;52.520;13.450;2024-02-26T00:51:54;20.20;55.90
13369;DHT22;6753;52.520;13.450;2024-02-26T00:52:06;20.20;55.90
13369;DHT22;6753;52.520;13.450;2024-02-26T00:52:16;20.20;55.90
13369;DHT22;6753;52.520;13.450;2024-02-26T00:52:27;20.20;55.90
13369;DHT22;6753;52.520;13.450;2024-02-26T00:52:38;20.20;55.90
13369;DHT22;6753;52.520;13.450;2024-02-26T00:52:49;20.20;55.90
13369;DHT22;6753;52.520;13.450;2024-02-26T00:52:59;20.20;55.90
13369;DHT22;6753;52.520;13.450;2024-02-26T00:53:10;20.10;55.70
13369;DHT22;6753;52.520;13.450;2024-02-26T00:53:21;20.20;55.90
13369;DHT22;6753;52.520;13.450;2024-02-26T00:53:32;20.20;55.90
13369;DHT22;6753;52.520;13.450;2024-02-26T00:53:42;20.20;55.90
13369;DHT22;6753;52.520;13.450;2024-02-26T00:53:54;20.10;55.70
13369;DHT22;6753;52.520;13.450;2024-02-26T00:54:04;20.20;55.90
13369;DHT22;6753;52.520;13.450;2024-02-26T00:54:16;20.20;55.90
13369;DHT22;6753;52.520;13.450;2024-02-26T00:54:27;20.20;55.90
13369;DHT22;6753;52.520;13.450;2024-02-26T00:54:37;20.20;55.80
13369;DHT22;6753;52.520;13.450;2024-02-26T00:54:48;20.20;55.90
13369;DHT22;6753;52.520;13.450;2024-02-26T00:54:59;20.20;55.80
13369;DHT22;6753;52.520;13.450;2024-02-26T00:55:10;20.20;55.90
13369;DHT22;6753;52.520;13.450;2024-02-26T00:55:20;20.20;55.80
13369;DHT22;6753;52.520;13.450;2024-02-26T00:55:31;20.20;56.40
13369;DHT22;6753;52.520;13.450;2024-02-26T00:55:42;20.10;55.70
13369;DHT22;6753;52.520;13.450;2024-02-26T00:55:53;20.20;55.80
13369;DHT22;6753;52.520;13.450;2024-02-26T00:56:05;20.20;55.80
13369;DHT22;6753;52.520;13.450;2024-02-26T00:56:17;20.10;55.70
13369;DHT22;6753;52.520;13.450;2024-02-26T00:56:27;20.20;55.80
13369;DHT22;6753;52.520;13.450;2024-02-26T00:56:38;20.20;55.80
13369;DHT22;6753;52.520;13.450;2024-02-26T00:56:49;20.20;55.80
13369;DHT22;6753;52.520;13.450;2024-02-26T00:56:59;20.20;55.80
13369;DHT22;6753;52.520;13.450;2024-02-26T00:57:10;20.10;55.70
13369;DHT22;6753;52.520;13.450;2024-02-26T00:57:22;20.20;55.90
13369;DHT22;6753;52.520;13.450;2024-02-26T00:57:34;20.20;55.80
13369;DHT22;6753;52.520;13.450;2024-02-26T00:57:44;20.20;55.80
13369;DHT22;6753;52.520;13.450;2024-02-26T00:57:55;20.20;56.00
13369;DHT22;6753;52.520;13.450;2024-02-26T00:58:06;20.20;55.80
13369;DHT22;6753;52.520;13.450;2024-02-26T00:58:17;20.10;55.70
13369;DHT22;6753;52.520;13.450;2024-02-26T00:58:29;20.10;55.70
13369;DHT22;6753;52.520;13.450;2024-02-26T00:58:40;20.20;55.80
13369;DHT22;6753;52.520;13.450;2024-02-26T00:58:50;20.20;55.90
13369;DHT22;6753;52.520;13.450;2024-02-26T00:59:01;20.10;55.70
13369;DHT22;6753;52.520;13.450;2024-02-26T00:59:12;20.20;55.80
13369;DHT22;6753;52.520;13.450;2024-02-26T00:59:23;20.10;55.70
13369;DHT22;6753;52.520;13.450;2024-02-26T00:59:33;20.10;55.70
13369;DHT22;6753;52.520;13.450;2024-02-26T00:59:44;20.10;55.70
13369;DHT22;6753;52.520;13.450;2024-02-26T00:59:55;20.10;55.70
13369;DHT22;6753;52.520;13.450;2024-02-26T01:00:10;20.10;55.60
13369;DHT22;6753;52.520;13.450;2024-02-26T01:00:22;20.20;55.80
13369;DHT22;6753;52.520;13.450;2024-02-26T01:00:33;20.20;55.80
13369;DHT22;6753;52.520;13.450;2024-02-26T01:00:43;20.20;55.80
13369;DHT22;6753;52.520;13.450;2024-02-26T01:00:54;20.10;55.60
13369;DHT22;6753;52.520;13.450;2024-02-26T01:01:05;20.20;55.80
13369;DHT22;6753;52.520;13.450;2024-02-26T01:01:16;20.20;55.80
13369;DHT22;6753;52.520;13.450;2024-02-26T01:01:26;20.10;55.60
13369;DHT22;6753;52.520;13.450;2024-02-26T01:01:37;20.20;55.80
13369;DHT22;6753;52.520;13.450;2024-02-26T01:01:48;20.10;55.70
13369;DHT22;6753;52.520;13.450;2024-02-26T01:01:59;20.10;55.60
13369;DHT22;6753;52.520;13.450;2024-02-26T01:02:12;20.10;55.60
13369;DHT22;6753;52.520;13.450;2024-02-26T01:02:23;20.20;55.80
13369;DHT22;6753;52.520;13.450;2024-02-26T01:02:34;20.10;55.60
13369;DHT22;6753;52.520;13.450;2024-02-26T01:02:44;20.20;55.80
13369;DHT22;6753;52.520;13.450;2024-02-26T01:02:57;20.10;55.60
13369;DHT22;6753;52.520;13.450;2024-02-26T01:03:07;20.20;55.80
13369;DHT22;6753;52.520;13.450;2024-02-26T01:03:20;20.10;55.60
13369;DHT22;6753;52.520;13.450;2024-02-26T01:03:31;20.20;55.80
13369;DHT22;6753;52.520;13.450;2024-02-26T01:03:41;20.20;55.80
13369;DHT22;6753;52.520;13.450;2024-02-26T01:03:52;20.20;55.70
13369;DHT22;6753;52.520;13.450;2024-02-26T01:04:04;20.10;55.60
13369;DHT22;6753;52.520;13.450;2024-02-26T01:04:16;20.10;55.60
13369;DHT22;6753;52.520;13.450;2024-02-26T01:04:27;20.00;55.50
13369;DHT22;6753;52.520;13.450;2024-02-26T01:04:38;20.10;55.60
13369;DHT22;6753;52.520;13.450;2024-02-26T01:04:48;20.10;55.60
13369;DHT22;6753;52.520;13.450;2024-02-26T01:04:59;20.20;55.70
13369;DHT22;6753;52.520;13.450;2024-02-26T01:05:10;20.10;55.60
13369;DHT22;6753;52.520;13.450;2024-02-26T01:05:21;20.10;55.60
13369;DHT22;6753;52.520;13.450;2024-02-26T01:05:31;20.10;55.30
13369;DHT22;6753;52.520;13.450;2024-02-26T01:05:42;20.10;55.60
13369;DHT22;6753;52.520;13.450;2024-02-26T01:05:54;20.10;55.60
13369;DHT22;6753;52.520;13.450;2024-02-26T01:06:05;20.10;55.60
13369;DHT22;6753;52.520;13.450;2024-02-26T01:06:15;20.10;55.60
13369;DHT22;6753;52.520;13.450;2024-02-26T01:06:26;20.20;55.70
13369;DHT22;6753;52.520;13.450;2024-02-26T01:06:37;20.10;55.60
13369;DHT22;6753;52.520;13.450;2024-02-26T01:06:47;20.10;55.60
13369;DHT22;6753;52.520;13.450;2024-02-26T01:06:58;20.20;55.70
13369;DHT22;6753;52.520;13.450;2024-02-26T01:07:09;20.10;55.60
13369;DHT22;6753;52.520;13.450;2024-02-26T01:07:20;20.10;55.60
13369;DHT22;6753;52.520;13.450;2024-02-26T01:07:30;20.10;55.60
13369;DHT22;6753;52.520;13.450;2024-02-26T01:07:46;20.10;55.60
13369;DHT22;6753;52.520;13.450;2024-02-26T01:07:57;20.10;55.60
13369;DHT22;6753;52.520;13.450;2024-02-26T01:08:08;20.10;55.60
13369;DHT22;6753;52.520;13.450;2024-02-26T01:08:19;20.10;55.60
13369;DHT22;6753;52.520;13.450;2024-02-26T01:08:30;20.10;55.60
13369;DHT22;6753;52.520;13.450;2024-02-26T01:08:42;20.10;55.60
13369;DHT22;6753;52.520;13.450;2024-02-26T01:08:53;20.10;55.60
13369;DHT22;6753;52.520;13.450;2024-02-26T01:09:03;20.10;55.60
13369;DHT22;6753;52.520;13.450;2024-02-26T01:09:14;20.10;55.60
13369;DHT22;6753;52.520;13.450;2024-02-26T01:09:26;20.10;55.50
13369;DHT22;6753;52.520;13.450;2024-02-26T01:09:37;20.10;55.60
13369;DHT22;6753;52.520;13.450;2024-02-26T01:09:48;20.10;55.60
13369;DHT22;6753;52.520;13.450;2024-02-26T01:09:59;20.10;55.60
13369;DHT22;6753;52.520;13.450;2024-02-26T01:10:10;20.10;55.60